Time;durP1;ratioP1;P1;durP2;ratioP2;P2;SDS_P1;SDS_P2;PMS_P1;PMS_P2;Temp;Humidity;BMP_temperature;BMP_pressure;BME280_temperature;BME280_humidity;BME280_pressure;Samples;Min_cycle;Max_cycle;Signal;HPM_P1;HPM_P2
2024/03/17 00:02:20;;;;;;;17.13;7.40;;;6.00;67.50;;;;;;5018431;28;20447;-80
2024/03/17 00:04:46;;;;;;;15.57;8.00;;;6.00;66.80;;;;;;5002380;28;20417;-78
2024/03/17 00:07:12;;;;;;;15.90;8.38;;;6.00;66.70;;;;;;5021881;28;20484;-77
2024/03/17 00:09:38;;;;;;;17.70;8.20;;;6.10;66.80;;;;;;5020297;28;20381;-77
2024/03/17 00:12:04;;;;;;;14.32;7.90;;;6.00;66.60;;;;;;5020841;28;20392;-78
2024/03/17 00:14:30;;;;;;;17.15;8.07;;;6.00;67.10;;;;;;5020667;28;20404;-78
2024/03/17 00:16:55;;;;;;;18.20;8.20;;;6.00;66.70;;;;;;5021894;28;20471;-77
2024/03/17 00:19:23;;;;;;;16.23;8.57;;;6.00;67.00;;;;;;5000954;28;20393;-77
2024/03/17 00:21:50;;;;;;;18.55;8.70;;;6.00;67.00;;;;;;5016988;28;20439;-79
2024/03/17 00:24:16;;;;;;;17.38;8.23;;;5.90;67.50;;;;;;5020280;28;20926;-77
2024/03/17 00:26:42;;;;;;;14.95;7.93;;;5.90;67.80;;;;;;5023413;28;20604;-77
2024/03/17 00:29:07;;;;;;;16.57;7.17;;;5.90;68.00;;;;;;5026756;28;20416;-78
2024/03/17 00:31:33;;;;;;;17.50;8.10;;;5.90;68.20;;;;;;5024245;28;20396;-77
2024/03/17 00:33:59;;;;;;;18.55;8.30;;;5.90;68.60;;;;;;5005345;28;20420;-78
2024/03/17 00:36:24;;;;;;;15.65;8.35;;;5.90;68.80;;;;;;5021132;28;20393;-77
2024/03/17 00:38:51;;;;;;;16.40;8.05;;;5.90;68.70;;;;;;5022988;28;20526;-78
2024/03/17 00:41:17;;;;;;;14.80;8.45;;;6.00;68.70;;;;;;5024149;28;20436;-78
2024/03/17 00:43:43;;;;;;;13.27;7.60;;;6.00;68.40;;;;;;5019865;28;20385;-78
2024/03/17 00:46:08;;;;;;;15.50;7.63;;;6.10;68.00;;;;;;5018718;28;20393;-77
2024/03/17 00:48:34;;;;;;;15.00;7.80;;;6.10;67.80;;;;;;5019892;28;20395;-77
2024/03/17 00:50:59;;;;;;;16.57;8.43;;;6.20;67.20;;;;;;5018056;28;20417;-77
2024/03/17 00:53:25;;;;;;;18.63;8.40;;;6.20;66.60;;;;;;5016704;28;20385;-78
2024/03/17 00:55:58;;;;;;;16.17;8.00;;;6.20;66.30;;;;;;5016467;28;20844;-79
2024/03/17 00:58:24;;;;;;;15.50;8.20;;;6.20;66.10;;;;;;5018004;28;20782;-77
2024/03/17 01:00:49;;;;;;;14.30;8.07;;;6.20;65.90;;;;;;5016862;28;20914;-78
2024/03/17 01:03:16;;;;;;;13.85;7.32;;;6.20;65.40;;;;;;5017375;28;20377;-81
2024/03/17 01:05:43;;;;;;;15.32;7.90;;;6.20;65.30;;;;;;5016830;28;20404;-78
2024/03/17 01:08:09;;;;;;;17.65;7.78;;;6.20;65.70;;;;;;4998369;28;20415;-77
2024/03/17 01:10:41;;;;;;;16.17;6.85;;;6.20;66.20;;;;;;5016084;28;20448;-80
2024/03/17 01:13:07;;;;;;;13.98;7.05;;;6.10;66.40;;;;;;5016719;28;20387;-78
2024/03/17 01:15:34;;;;;;;13.82;7.22;;;6.20;66.00;;;;;;5017376;28;20411;-77
2024/03/17 01:17:59;;;;;;;16.33;8.10;;;6.20;65.70;;;;;;5018967;28;20380;-77
2024/03/17 01:20:25;;;;;;;12.43;7.40;;;6.10;65.90;;;;;;5018954;28;20449;-79
2024/03/17 01:22:51;;;;;;;15.13;7.40;;;6.10;66.50;;;;;;4999243;28;20412;-77
2024/03/17 01:25:17;;;;;;;14.40;7.30;;;6.10;66.30;;;;;;5015601;28;20392;-77
2024/03/17 01:27:43;;;;;;;16.73;8.57;;;6.10;66.90;;;;;;5020114;28;20400;-76
2024/03/17 01:30:09;;;;;;;12.85;7.55;;;6.10;67.40;;;;;;5025502;28;20528;-77
2024/03/17 01:32:35;;;;;;;17.00;8.00;;;6.10;67.10;;;;;;5034514;28;20387;-75
2024/03/17 01:35:01;;;;;;;16.67;8.90;;;6.20;66.80;;;;;;5013372;28;20528;-74
2024/03/17 01:37:26;;;;;;;16.80;8.60;;;6.10;67.70;;;;;;5013725;28;20756;-75
2024/03/17 01:39:52;;;;;;;17.83;7.87;;;6.10;68.50;;;;;;5021314;28;20395;-77
2024/03/17 01:42:17;;;;;;;12.40;7.50;;;6.10;68.40;;;;;;5024671;28;20393;-76
2024/03/17 01:44:43;;;;;;;13.13;7.00;;;6.10;68.20;;;;;;5035873;28;20399;-76
2024/03/17 01:47:09;;;;;;;16.03;7.20;;;6.10;68.20;;;;;;5035710;28;20397;-77
2024/03/17 01:49:36;;;;;;;19.85;9.80;;;6.10;68.20;;;;;;5019477;28;20446;-78
2024/03/17 01:52:03;;;;;;;17.85;8.20;;;6.00;69.00;;;;;;5034076;28;20425;-77
2024/03/17 01:54:29;;;;;;;15.18;7.53;;;6.00;69.20;;;;;;5033643;28;20932;-77
2024/03/17 01:56:55;;;;;;;14.90;7.27;;;6.00;69.50;;;;;;5034240;28;20388;-79
2024/03/17 01:59:20;;;;;;;18.83;9.13;;;6.00;69.20;;;;;;5033904;28;20403;-76
2024/03/17 02:01:46;;;;;;;18.80;8.90;;;5.90;69.50;;;;;;5033544;28;20444;-76
2024/03/17 02:04:11;;;;;;;15.47;8.10;;;5.90;70.20;;;;;;5034106;28;20449;-77
2024/03/17 02:06:37;;;;;;;17.37;7.40;;;5.80;70.30;;;;;;5034811;28;20387;-78
2024/03/17 02:09:03;;;;;;;22.33;8.87;;;5.80;69.40;;;;;;5034970;28;20395;-78
2024/03/17 02:11:33;;;;;;;16.83;8.20;;;5.80;69.80;;;;;;5041444;28;20386;-77
2024/03/17 02:14:00;;;;;;;13.45;7.70;;;5.80;70.50;;;;;;5044710;28;20417;-77
2024/03/17 02:16:26;;;;;;;17.98;7.63;;;5.70;71.70;;;;;;5023275;28;20742;-77
2024/03/17 02:18:58;;;;;;;14.60;8.02;;;5.80;72.00;;;;;;5041562;28;20423;-77
2024/03/17 02:21:25;;;;;;;15.47;9.10;;;5.80;71.60;;;;;;5045304;23;20437;-71
2024/03/17 02:23:54;;;;;;;17.50;8.88;;;5.70;72.40;;;;;;5012635;28;20384;-70
2024/03/17 02:26:21;;;;;;;16.65;9.35;;;5.70;73.70;;;;;;5011480;28;20411;-70
2024/03/17 02:28:47;;;;;;;18.27;8.07;;;5.70;75.20;;;;;;5012013;28;20384;-71
2024/03/17 02:31:15;;;;;;;18.25;10.50;;;5.60;75.10;;;;;;5012145;28;20411;-70
2024/03/17 02:33:41;;;;;;;20.45;9.52;;;5.60;76.60;;;;;;4994293;28;20397;-71
2024/03/17 02:36:07;;;;;;;23.07;9.50;;;5.60;76.80;;;;;;4994438;28;20483;-72
2024/03/17 02:41:18;;;;;;;20.40;9.40;;;5.60;77.70;;;;;;5012434;28;20814;-69
2024/03/17 02:43:44;;;;;;;17.33;9.30;;;5.60;77.90;;;;;;5012678;28;20392;-71
2024/03/17 02:46:15;;;;;;;18.73;9.90;;;5.60;78.40;;;;;;4995624;28;20420;-71
2024/03/17 02:48:46;;;;;;;15.60;8.43;;;5.50;78.90;;;;;;5012163;28;20944;-70
2024/03/17 02:51:14;;;;;;;15.55;8.57;;;5.50;79.90;;;;;;5012870;28;20882;-72
2024/03/17 02:53:41;;;;;;;17.33;9.38;;;5.50;80.90;;;;;;5016075;28;20393;-71
2024/03/17 02:56:06;;;;;;;15.95;10.35;;;5.50;81.20;;;;;;5015504;28;20560;-71
2024/03/17 02:58:37;;;;;;;18.70;10.30;;;5.50;80.80;;;;;;5017786;28;20399;-71
2024/03/17 03:01:06;;;;;;;20.92;9.38;;;5.50;83.30;;;;;;5011757;28;20434;-71
2024/03/17 03:03:35;;;;;;;21.50;10.32;;;5.50;81.40;;;;;;5011882;28;20476;-71
2024/03/17 03:06:03;;;;;;;19.73;9.35;;;5.50;82.80;;;;;;5011940;28;20412;-71
2024/03/17 03:08:32;;;;;;;20.60;9.65;;;5.50;82.20;;;;;;4993985;28;20404;-71
2024/03/17 03:10:57;;;;;;;19.67;10.80;;;5.50;82.00;;;;;;5012417;28;20415;-72
2024/03/17 03:13:23;;;;;;;20.97;9.97;;;5.50;83.30;;;;;;5011823;28;20385;-71
2024/03/17 03:15:49;;;;;;;19.17;10.10;;;5.40;83.30;;;;;;5011931;28;20484;-72
2024/03/17 03:18:15;;;;;;;18.25;9.27;;;5.50;83.50;;;;;;5013228;28;20762;-72
2024/03/17 03:20:41;;;;;;;19.52;10.25;;;5.50;82.90;;;;;;5013257;28;20430;-72
2024/03/17 03:23:07;;;;;;;19.23;10.80;;;5.50;82.90;;;;;;5012243;28;20384;-70
2024/03/17 03:25:32;;;;;;;23.52;10.55;;;5.40;83.90;;;;;;5011918;28;20425;-71
2024/03/17 03:27:58;;;;;;;20.00;10.32;;;5.40;84.30;;;;;;5011650;28;20389;-71
2024/03/17 03:30:24;;;;;;;20.50;10.35;;;5.40;85.10;;;;;;5011475;28;20420;-70
2024/03/17 03:32:50;;;;;;;21.73;9.90;;;5.40;86.20;;;;;;5012279;28;20384;-71
2024/03/17 03:35:16;;;;;;;22.15;10.57;;;5.40;85.60;;;;;;5011552;28;20420;-71
2024/03/17 03:37:42;;;;;;;17.98;10.60;;;5.40;85.90;;;;;;5012057;28;20898;-72
2024/03/17 03:40:16;;;;;;;19.50;11.80;;;5.40;85.70;;;;;;5011721;28;20485;-71
2024/03/17 03:42:45;;;;;;;22.70;11.38;;;5.40;87.00;;;;;;5012486;28;20591;-73
2024/03/17 03:45:13;;;;;;;21.77;10.40;;;5.30;87.20;;;;;;5012008;28;20392;-71
2024/03/17 03:47:43;;;;;;;23.70;10.77;;;5.30;88.00;;;;;;5012213;28;20424;-74
2024/03/17 03:50:11;;;;;;;21.70;11.23;;;5.30;89.30;;;;;;4993976;28;20816;-71
2024/03/17 03:52:38;;;;;;;20.80;11.15;;;5.30;90.50;;;;;;5011387;28;20403;-72
2024/03/17 03:55:04;;;;;;;16.95;10.38;;;5.30;91.10;;;;;;5011756;28;20409;-71
2024/03/17 03:57:31;;;;;;;23.85;11.48;;;5.30;89.60;;;;;;5012747;28;20412;-71
2024/03/17 03:59:57;;;;;;;24.13;10.93;;;5.40;91.10;;;;;;5015272;28;20402;-71
2024/03/17 04:02:25;;;;;;;21.20;10.67;;;5.40;90.70;;;;;;5018899;28;20412;-70
2024/03/17 04:04:50;;;;;;;21.80;10.90;;;5.40;89.10;;;;;;5017832;28;20429;-71
2024/03/17 04:07:16;;;;;;;23.87;10.40;;;5.40;89.20;;;;;;5014833;28;20386;-71
2024/03/17 04:09:42;;;;;;;19.95;10.30;;;5.40;88.40;;;;;;5014994;28;20396;-70
2024/03/17 04:12:07;;;;;;;22.80;11.30;;;5.40;87.70;;;;;;5015002;28;20380;-71
2024/03/17 04:14:33;;;;;;;21.30;11.60;;;5.40;88.90;;;;;;5014601;28;20890;-71
2024/03/17 04:16:59;;;;;;;22.03;11.00;;;5.40;88.70;;;;;;4996916;28;20391;-71
2024/03/17 04:19:25;;;;;;;18.80;11.20;;;5.40;89.50;;;;;;5014550;28;20446;-70
2024/03/17 04:21:51;;;;;;;19.47;10.47;;;5.50;87.30;;;;;;5014748;28;20404;-71
2024/03/17 04:24:17;;;;;;;17.33;9.70;;;5.50;86.10;;;;;;5014801;28;20396;-72
2024/03/17 04:26:43;;;;;;;18.10;11.07;;;5.60;84.60;;;;;;5013605;28;20396;-70
2024/03/17 04:29:08;;;;;;;22.50;11.53;;;5.60;85.80;;;;;;5015393;28;20392;-71
2024/03/17 04:31:34;;;;;;;15.57;10.13;;;5.60;84.20;;;;;;5018192;28;20408;-72
2024/03/17 04:34:00;;;;;;;19.30;11.37;;;5.60;84.50;;;;;;5015393;28;20616;-70
2024/03/17 04:36:25;;;;;;;22.30;11.40;;;5.60;84.90;;;;;;5015048;28;20380;-70
2024/03/17 04:38:51;;;;;;;21.38;10.65;;;5.70;86.80;;;;;;5014048;28;20440;-71
2024/03/17 04:41:18;;;;;;;17.27;10.32;;;5.80;84.50;;;;;;5014370;28;20389;-72
2024/03/17 04:43:44;;;;;;;17.73;10.60;;;5.90;81.80;;;;;;5014947;28;20700;-71
2024/03/17 04:46:11;;;;;;;18.70;10.50;;;5.90;82.30;;;;;;5014902;28;20442;-71
2024/03/17 04:48:37;;;;;;;22.92;11.20;;;6.00;80.80;;;;;;5014027;28;20746;-71
2024/03/17 04:51:03;;;;;;;20.92;10.52;;;6.10;81.50;;;;;;5014140;28;20381;-71
2024/03/17 04:53:29;;;;;;;19.23;10.20;;;6.10;79.50;;;;;;4996688;28;20968;-69
2024/03/17 04:56:04;;;;;;;19.90;9.45;;;6.20;77.40;;;;;;4996879;28;20468;-71
2024/03/17 04:58:34;;;;;;;19.65;10.38;;;6.20;77.70;;;;;;5015187;28;20384;-72
2024/03/17 05:01:09;;;;;;;19.30;9.73;;;6.30;75.30;;;;;;5017153;28;20393;-71
2024/03/17 05:03:35;;;;;;;26.13;10.45;;;6.40;75.30;;;;;;5008697;28;20419;-72
2024/03/17 05:06:04;;;;;;;18.10;9.48;;;6.40;74.20;;;;;;5026604;28;20389;-70
2024/03/17 05:08:31;;;;;;;14.43;8.30;;;6.40;74.50;;;;;;5019636;28;20381;-71
2024/03/17 05:11:05;;;;;;;20.88;9.80;;;6.40;70.40;;;;;;5012355;28;20439;-70
2024/03/17 05:13:35;;;;;;;21.52;9.15;;;6.50;69.30;;;;;;5013523;28;20433;-71
2024/03/17 05:16:01;;;;;;;12.55;8.00;;;6.50;69.60;;;;;;5013642;28;20402;-72
2024/03/17 05:18:27;;;;;;;19.88;9.70;;;6.60;66.80;;;;;;5013746;28;20392;-71
2024/03/17 05:21:00;;;;;;;19.67;8.73;;;6.50;67.70;;;;;;5013342;28;20427;-71
2024/03/17 05:23:30;;;;;;;16.45;9.80;;;6.50;68.30;;;;;;4995823;28;20441;-72
2024/03/17 05:25:57;;;;;;;13.40;8.93;;;6.50;67.60;;;;;;4995875;28;20423;-72
2024/03/17 05:28:28;;;;;;;15.88;9.95;;;6.40;67.80;;;;;;5013316;28;20392;-71
2024/03/17 05:30:54;;;;;;;16.60;9.40;;;6.30;70.20;;;;;;5013520;28;20381;-70
2024/03/17 05:33:23;;;;;;;14.02;9.05;;;6.30;68.90;;;;;;5013280;28;20420;-71
2024/03/17 05:35:53;;;;;;;14.50;9.00;;;6.20;70.40;;;;;;5013296;28;20409;-72
2024/03/17 05:38:29;;;;;;;16.40;8.90;;;6.20;69.60;;;;;;5013452;28;20392;-72
2024/03/17 05:41:01;;;;;;;16.30;9.20;;;6.10;70.20;;;;;;5013167;28;20400;-72
2024/03/17 05:43:28;;;;;;;13.68;8.60;;;6.10;70.60;;;;;;5013182;28;20416;-70
2024/03/17 05:45:57;;;;;;;13.03;8.40;;;6.10;69.00;;;;;;5013115;28;20939;-71
2024/03/17 05:48:24;;;;;;;14.52;8.52;;;6.00;69.30;;;;;;5013339;28;20407;-70
2024/03/17 05:50:50;;;;;;;16.13;9.30;;;6.00;70.00;;;;;;5015379;28;20396;-72
2024/03/17 05:53:17;;;;;;;14.45;9.00;;;6.00;71.80;;;;;;5020376;28;20392;-70
2024/03/17 05:55:44;;;;;;;14.20;9.23;;;6.10;72.00;;;;;;5020754;28;20401;-71
2024/03/17 05:58:10;;;;;;;16.27;8.70;;;6.20;71.70;;;;;;5021222;28;20934;-72
2024/03/17 06:00:36;;;;;;;15.25;9.00;;;6.30;69.30;;;;;;5021269;28;20471;-72
2024/03/17 06:03:03;;;;;;;14.02;8.27;;;6.30;68.40;;;;;;5017687;28;20389;-71
2024/03/17 06:05:34;;;;;;;18.50;8.65;;;6.50;65.70;;;;;;5014354;28;20874;-71
2024/03/17 06:08:02;;;;;;;16.50;8.60;;;6.50;65.10;;;;;;5013571;28;20771;-71
2024/03/17 06:10:28;;;;;;;13.57;8.40;;;6.60;64.60;;;;;;5013858;28;20525;-72
2024/03/17 06:12:54;;;;;;;15.43;8.18;;;6.60;64.00;;;;;;4999608;28;20479;-71
2024/03/17 06:15:21;;;;;;;16.43;9.20;;;6.60;61.40;;;;;;5012750;28;20499;-71
2024/03/17 06:17:46;;;;;;;14.75;7.60;;;6.60;62.70;;;;;;4995492;28;20396;-70
2024/03/17 06:20:13;;;;;;;12.13;8.00;;;6.60;60.40;;;;;;5014083;28;20396;-71
2024/03/17 06:22:39;;;;;;;12.05;8.10;;;6.70;59.80;;;;;;4995296;28;20419;-71
2024/03/17 06:25:08;;;;;;;16.23;8.30;;;6.70;59.60;;;;;;5016577;28;20389;-71
2024/03/17 06:27:34;;;;;;;15.40;8.95;;;6.70;58.70;;;;;;5018357;28;20760;-71
2024/03/17 06:30:03;;;;;;;15.18;7.90;;;6.90;57.20;;;;;;5018677;28;20393;-72
2024/03/17 06:32:32;;;;;;;11.93;7.63;;;7.00;57.40;;;;;;5032595;28;20424;-70
2024/03/17 06:34:58;;;;;;;13.18;7.78;;;7.10;55.90;;;;;;5036787;28;20405;-70
2024/03/17 06:37:26;;;;;;;15.20;8.15;;;7.20;55.50;;;;;;5036154;28;20401;-71
2024/03/17 06:39:51;;;;;;;13.52;6.72;;;7.30;56.20;;;;;;5034910;28;20408;-71
2024/03/17 06:42:17;;;;;;;15.63;8.53;;;7.40;55.30;;;;;;5035863;28;20388;-71
2024/03/17 06:44:42;;;;;;;18.20;8.30;;;7.60;53.80;;;;;;5035533;28;20460;-72
2024/03/17 06:47:08;;;;;;;14.20;7.80;;;7.80;52.10;;;;;;5028178;28;20795;-72
2024/03/17 06:49:33;;;;;;;13.30;8.27;;;7.90;50.10;;;;;;5019245;28;20396;-71
2024/03/17 06:51:59;;;;;;;11.32;7.43;;;8.10;50.00;;;;;;5018182;28;20472;-72
2024/03/17 06:54:24;;;;;;;12.70;8.82;;;8.30;49.00;;;;;;5015576;28;20724;-72
2024/03/17 06:56:51;;;;;;;14.98;8.00;;;8.40;48.40;;;;;;5016869;28;20392;-71
2024/03/17 06:59:17;;;;;;;12.48;7.32;;;8.60;46.90;;;;;;5018884;28;20516;-71
2024/03/17 07:01:44;;;;;;;13.73;7.90;;;8.70;46.10;;;;;;5000226;28;20392;-71
2024/03/17 07:04:10;;;;;;;12.00;7.50;;;8.70;45.60;;;;;;5018935;28;20439;-72
2024/03/17 07:06:36;;;;;;;13.27;6.80;;;8.70;45.40;;;;;;5016701;28;20887;-72
2024/03/17 07:09:02;;;;;;;14.00;7.47;;;8.60;45.20;;;;;;4998993;28;20476;-71
2024/03/17 07:11:27;;;;;;;10.87;7.23;;;8.50;45.20;;;;;;5015862;28;20399;-72
2024/03/17 07:13:53;;;;;;;14.80;8.00;;;8.40;46.00;;;;;;5018102;28;20409;-72
2024/03/17 07:16:21;;;;;;;12.80;7.10;;;8.40;46.30;;;;;;5018566;28;20452;-72
2024/03/17 07:18:46;;;;;;;10.90;6.50;;;8.20;46.80;;;;;;5018029;28;20392;-71
2024/03/17 07:21:12;;;;;;;11.37;7.07;;;8.20;46.60;;;;;;5017833;28;20412;-71
2024/03/17 07:23:38;;;;;;;12.90;7.13;;;8.10;47.50;;;;;;5017169;28;20393;-71
2024/03/17 07:26:09;;;;;;;15.25;7.43;;;8.00;46.90;;;;;;5018810;28;20385;-73
2024/03/17 07:28:34;;;;;;;10.23;6.43;;;8.00;47.20;;;;;;5018800;28;20725;-71
2024/03/17 07:31:00;;;;;;;11.40;7.20;;;8.00;45.90;;;;;;5017953;28;20443;-73
2024/03/17 07:33:26;;;;;;;13.17;7.10;;;8.00;46.10;;;;;;5016413;28;20507;-72
2024/03/17 07:36:02;;;;;;;14.10;7.63;;;8.00;46.80;;;;;;5017575;28;20444;-72
2024/03/17 07:38:30;;;;;;;11.20;7.03;;;8.10;47.70;;;;;;5017126;28;20464;-72
2024/03/17 07:41:01;;;;;;;12.85;7.93;;;8.30;46.90;;;;;;5012662;28;20392;-72
2024/03/17 07:43:28;;;;;;;13.32;6.95;;;8.70;46.30;;;;;;5011624;28;20385;-72
2024/03/17 07:46:06;;;;;;;11.82;6.57;;;8.80;43.80;;;;;;5012070;28;20795;-72
2024/03/17 07:48:33;;;;;;;14.02;7.90;;;9.10;43.30;;;;;;5013321;28;20818;-72
2024/03/17 07:51:04;;;;;;;10.17;6.57;;;9.40;42.00;;;;;;4998347;28;20405;-72
2024/03/17 07:53:30;;;;;;;14.77;7.20;;;9.60;39.80;;;;;;5018165;28;20467;-71
2024/03/17 07:55:58;;;;;;;13.52;7.20;;;9.80;39.40;;;;;;5001878;28;20916;-71
2024/03/17 07:58:25;;;;;;;12.00;7.00;;;9.80;39.50;;;;;;5022790;28;20409;-70
2024/03/17 08:00:52;;;;;;;9.20;6.40;;;9.80;39.10;;;;;;5021188;28;21801;-72
2024/03/17 08:03:18;;;;;;;11.38;6.60;;;9.70;38.20;;;;;;5021580;28;20408;-71
2024/03/17 08:05:49;;;;;;;10.82;6.32;;;9.50;39.10;;;;;;5020144;28;20389;-71
2024/03/17 08:08:15;;;;;;;13.02;5.90;;;9.50;38.20;;;;;;5011152;28;20396;-71
2024/03/17 08:10:41;;;;;;;12.88;7.10;;;9.30;39.60;;;;;;5010864;28;20388;-71
2024/03/17 08:13:08;;;;;;;11.48;6.03;;;9.50;41.50;;;;;;5010513;28;20393;-71
2024/03/17 08:15:34;;;;;;;12.38;6.40;;;9.60;40.40;;;;;;5010587;28;20761;-72
2024/03/17 08:18:00;;;;;;;10.10;6.30;;;9.80;38.70;;;;;;5010403;28;20422;-72
2024/03/17 08:20:25;;;;;;;11.80;6.60;;;9.90;38.50;;;;;;5010469;28;20479;-71
2024/03/17 08:22:51;;;;;;;10.20;6.40;;;10.10;38.50;;;;;;5039744;23;20488;-77
2024/03/17 08:25:17;;;;;;;8.48;6.13;;;10.30;38.50;;;;;;5009149;28;20398;-78
2024/03/17 08:27:43;;;;;;;10.40;5.60;;;10.40;37.60;;;;;;5020804;28;20419;-76
2024/03/17 08:30:12;;;;;;;6.63;4.90;;;10.60;35.30;;;;;;5022509;28;20391;-77
2024/03/17 08:32:39;;;;;;;9.93;5.80;;;10.70;35.60;;;;;;5028905;28;20424;-78
2024/03/17 08:35:05;;;;;;;10.10;5.22;;;10.90;35.20;;;;;;5030929;28;20417;-77
2024/03/17 08:37:31;;;;;;;12.35;6.57;;;11.20;34.00;;;;;;5031489;28;20387;-77
2024/03/17 08:39:57;;;;;;;10.73;6.67;;;11.40;33.70;;;;;;5030129;28;20425;-77
2024/03/17 08:42:22;;;;;;;10.03;6.10;;;11.60;33.30;;;;;;5031162;28;20885;-75
2024/03/17 08:44:48;;;;;;;9.77;5.90;;;11.80;32.60;;;;;;5029487;28;21020;-75
2024/03/17 08:47:13;;;;;;;9.05;5.40;;;12.00;31.30;;;;;;5018638;28;20894;-76
2024/03/17 08:49:39;;;;;;;8.95;4.90;;;12.20;30.70;;;;;;5018070;28;20468;-77
2024/03/17 08:52:04;;;;;;;8.17;5.80;;;12.30;29.70;;;;;;5032315;28;20853;-75
2024/03/17 08:54:30;;;;;;;7.37;4.90;;;12.50;30.10;;;;;;5033606;28;20806;-75
2024/03/17 08:56:56;;;;;;;8.93;5.10;;;12.60;29.50;;;;;;5034027;28;20390;-76
2024/03/17 08:59:21;;;;;;;10.87;5.30;;;12.70;30.50;;;;;;5014550;28;20396;-75
2024/03/17 09:01:47;;;;;;;8.90;5.00;;;12.70;29.00;;;;;;5024215;28;21002;-75
2024/03/17 09:04:13;;;;;;;6.43;4.70;;;12.70;29.80;;;;;;5013201;28;20471;-77
2024/03/17 09:06:38;;;;;;;9.65;5.40;;;12.70;28.80;;;;;;5027603;28;20436;-76
2024/03/17 09:09:04;;;;;;;7.95;4.82;;;12.80;28.90;;;;;;5023515;28;20419;-76
2024/03/17 09:11:29;;;;;;;7.97;4.97;;;12.80;28.10;;;;;;5023308;28;20405;-75
2024/03/17 09:13:55;;;;;;;9.57;5.27;;;12.70;28.50;;;;;;5013614;28;20389;-75
2024/03/17 09:16:22;;;;;;;9.60;4.80;;;12.80;27.80;;;;;;5015214;28;20393;-75
2024/03/17 09:18:49;;;;;;;9.25;5.00;;;12.80;27.80;;;;;;5013760;28;20430;-75
2024/03/17 09:21:16;;;;;;;7.00;4.27;;;12.70;28.50;;;;;;5014511;28;20748;-76
2024/03/17 09:23:42;;;;;;;8.38;4.80;;;12.70;28.40;;;;;;5014090;28;20484;-75
2024/03/17 09:26:09;;;;;;;11.02;5.20;;;12.80;28.40;;;;;;5027175;28;20474;-79
2024/03/17 09:28:36;;;;;;;8.63;4.35;;;12.90;28.90;;;;;;5038724;28;20399;-78
2024/03/17 09:31:02;;;;;;;9.27;4.75;;;12.80;27.50;;;;;;5038345;28;20387;-79
2024/03/17 09:33:29;;;;;;;7.83;4.50;;;12.90;27.90;;;;;;5021103;28;20457;-73
2024/03/17 09:36:01;;;;;;;8.30;4.78;;;13.10;27.50;;;;;;5033341;28;20442;-74
2024/03/17 09:38:28;;;;;;;9.57;4.97;;;13.30;27.30;;;;;;5032894;28;20379;-75
2024/03/17 09:40:55;;;;;;;9.63;5.20;;;13.40;27.10;;;;;;5026241;28;20491;-76
2024/03/17 09:43:21;;;;;;;4.93;3.80;;;13.60;27.20;;;;;;5017245;28;20385;-74
2024/03/17 09:45:48;;;;;;;7.85;4.53;;;13.70;26.40;;;;;;5016812;28;20404;-76
2024/03/17 09:48:17;;;;;;;8.60;4.10;;;13.70;26.10;;;;;;5025830;28;20395;-72
2024/03/17 09:50:51;;;;;;;6.47;4.33;;;13.80;26.10;;;;;;5029729;28;20555;-74
2024/03/17 09:53:20;;;;;;;6.82;4.60;;;13.80;25.50;;;;;;5021190;28;20394;-74
2024/03/17 09:55:45;;;;;;;11.30;4.72;;;14.00;25.20;;;;;;5025243;28;20473;-73
2024/03/17 09:58:17;;;;;;;8.00;4.45;;;14.00;25.20;;;;;;5027417;28;20394;-74
2024/03/17 10:00:43;;;;;;;11.70;4.70;;;13.90;25.80;;;;;;5025630;28;20397;-73
2024/03/17 10:03:09;;;;;;;5.60;4.40;;;14.10;25.50;;;;;;5026696;28;20405;-73
2024/03/17 10:05:35;;;;;;;7.72;5.40;;;14.00;25.40;;;;;;5033425;28;20505;-73
2024/03/17 10:08:02;;;;;;;6.85;4.10;;;13.90;26.00;;;;;;5024998;28;20883;-73
2024/03/17 10:10:27;;;;;;;8.90;4.40;;;14.10;25.50;;;;;;5012343;28;20396;-74
2024/03/17 10:12:53;;;;;;;9.85;4.90;;;14.40;25.30;;;;;;5014534;28;20417;-73
2024/03/17 10:15:20;;;;;;;6.22;4.30;;;14.50;24.30;;;;;;5013247;28;20409;-74
2024/03/17 10:17:46;;;;;;;7.93;4.78;;;14.50;24.60;;;;;;5019022;28;20393;-73
2024/03/17 10:20:20;;;;;;;8.88;4.90;;;14.50;24.50;;;;;;5013301;28;20385;-74
2024/03/17 10:23:03;;;;;;;8.40;4.63;;;14.50;23.70;;;;;;5012731;28;20403;-72
2024/03/17 10:25:30;;;;;;;12.53;5.43;;;14.70;23.30;;;;;;5012565;28;20558;-72
2024/03/17 10:27:56;;;;;;;10.43;5.25;;;14.80;23.40;;;;;;5013696;28;20743;-73
2024/03/17 10:30:24;;;;;;;10.05;4.53;;;14.90;23.80;;;;;;5012042;28;20400;-72
2024/03/17 10:33:25;;;;;;;7.50;4.85;;;15.00;22.90;;;;;;5023463;28;20470;-72
2024/03/17 10:35:50;;;;;;;6.80;5.00;;;15.20;22.80;;;;;;5033065;28;20919;-72
2024/03/17 10:38:16;;;;;;;11.30;5.70;;;15.30;22.20;;;;;;5042301;28;20427;-75
2024/03/17 10:40:42;;;;;;;8.00;4.87;;;15.40;22.10;;;;;;5036567;28;20419;-74
2024/03/17 10:43:07;;;;;;;8.75;5.40;;;15.40;22.10;;;;;;5015522;28;20400;-75
2024/03/17 10:45:37;;;;;;;7.28;4.50;;;15.50;21.90;;;;;;5012881;28;20426;-74
2024/03/17 10:48:06;;;;;;;8.13;4.53;;;15.50;21.40;;;;;;5017797;28;20415;-73
2024/03/17 10:50:36;;;;;;;7.88;4.55;;;15.60;21.10;;;;;;5004697;28;20391;-72
2024/03/17 10:53:04;;;;;;;7.68;4.20;;;15.60;21.00;;;;;;5031921;28;20383;-71
2024/03/17 10:55:40;;;;;;;7.82;4.65;;;15.60;20.60;;;;;;5024945;28;20412;-71
2024/03/17 10:58:16;;;;;;;6.18;4.20;;;15.60;21.00;;;;;;5023467;28;20388;-72
2024/03/17 11:00:43;;;;;;;8.73;4.50;;;15.70;20.90;;;;;;5027189;28;20818;-75
2024/03/17 11:03:11;;;;;;;8.05;4.55;;;16.00;20.70;;;;;;5033258;28;20395;-77
2024/03/17 11:05:37;;;;;;;5.20;4.00;;;16.20;20.20;;;;;;5032543;28;20402;-76
2024/03/17 11:08:04;;;;;;;7.05;4.10;;;16.10;20.00;;;;;;5031879;28;20402;-75
2024/03/17 11:10:36;;;;;;;7.30;4.88;;;16.20;20.00;;;;;;5033234;28;20504;-76
2024/03/17 11:13:02;;;;;;;6.85;4.22;;;16.30;19.50;;;;;;5034675;28;20408;-76
2024/03/17 11:15:33;;;;;;;9.07;4.55;;;16.40;19.20;;;;;;5033884;28;20425;-74
2024/03/17 11:18:10;;;;;;;8.82;4.65;;;16.30;19.60;;;;;;5034476;28;20391;-77
2024/03/17 11:20:58;;;;;;;9.13;4.55;;;16.80;19.10;;;;;;5033894;28;20797;-76
2024/03/17 11:23:28;;;;;;;8.47;4.50;;;16.80;19.20;;;;;;5034852;28;20868;-77
2024/03/17 11:25:54;;;;;;;8.30;4.45;;;16.70;18.60;;;;;;5034748;28;20886;-74
2024/03/17 11:28:58;;;;;;;8.52;4.40;;;16.60;18.70;;;;;;5034594;28;20521;-74
2024/03/17 11:31:52;;;;;;;6.93;4.35;;;16.40;19.10;;;;;;4954399;29;20418;-75
2024/03/17 11:34:34;;;;;;;5.95;3.85;;;16.50;19.80;;;;;;5031896;28;20407;-76
2024/03/17 11:37:01;;;;;;;5.93;4.20;;;17.00;19.40;;;;;;5032956;28;20398;-76
2024/03/17 11:39:49;;;;;;;9.75;4.80;;;16.90;19.00;;;;;;5032799;28;20391;-75
2024/03/17 11:42:16;;;;;;;8.30;4.90;;;16.70;18.80;;;;;;5035954;28;20379;-74
2024/03/17 11:44:59;;;;;;;8.00;4.37;;;16.50;19.50;;;;;;5033082;28;20398;-75
2024/03/17 11:47:34;;;;;;;10.50;4.25;;;16.50;19.80;;;;;;5032181;28;20379;-74
2024/03/17 11:50:02;;;;;;;6.65;4.25;;;16.70;20.00;;;;;;5013379;28;20478;-75
2024/03/17 11:52:28;;;;;;;6.40;4.30;;;16.50;20.00;;;;;;5035590;28;20550;-76
2024/03/17 11:54:54;;;;;;;8.77;4.45;;;16.50;19.70;;;;;;5031280;28;20411;-75
2024/03/17 11:57:22;;;;;;;8.03;4.70;;;16.50;19.80;;;;;;5031170;28;20414;-76
2024/03/17 11:59:48;;;;;;;8.45;4.10;;;16.40;20.00;;;;;;5032336;28;20474;-75
2024/03/17 12:02:26;;;;;;;7.72;5.32;;;16.60;19.90;;;;;;5030343;28;20800;-76
2024/03/17 12:04:58;;;;;;;8.18;5.15;;;16.70;19.70;;;;;;5030942;28;20383;-75
2024/03/17 12:07:25;;;;;;;7.32;4.45;;;16.60;19.10;;;;;;5031742;28;20742;-75
2024/03/17 12:09:52;;;;;;;5.07;3.70;;;16.70;19.60;;;;;;5031255;28;20391;-75
2024/03/17 12:12:19;;;;;;;8.75;5.55;;;16.80;19.40;;;;;;5031027;28;20415;-75
2024/03/17 12:14:45;;;;;;;12.38;4.07;;;16.90;19.40;;;;;;5030983;28;20411;-75
2024/03/17 12:17:16;;;;;;;9.70;5.22;;;17.20;18.90;;;;;;5031216;28;20743;-73
2024/03/17 12:19:45;;;;;;;10.20;4.77;;;17.40;18.60;;;;;;5033689;28;20379;-75
2024/03/17 12:22:21;;;;;;;6.90;3.92;;;17.40;18.00;;;;;;5017470;28;20410;-76
2024/03/17 12:24:51;;;;;;;8.10;4.70;;;17.60;18.30;;;;;;5034438;28;20735;-76
2024/03/17 12:27:24;;;;;;;6.47;4.50;;;17.60;18.00;;;;;;5035456;28;20394;-75
2024/03/17 12:29:51;;;;;;;10.82;4.90;;;17.70;18.30;;;;;;5034785;28;20397;-76
2024/03/17 12:32:22;;;;;;;6.38;4.50;;;17.80;17.50;;;;;;5034887;28;20387;-75
2024/03/17 12:34:53;;;;;;;9.48;4.88;;;17.70;17.60;;;;;;5017186;28;20407;-75
2024/03/17 12:37:19;;;;;;;9.00;4.45;;;17.60;17.90;;;;;;5034708;28;20462;-76
2024/03/17 12:39:46;;;;;;;4.70;4.20;;;17.60;18.70;;;;;;5016630;28;20384;-77
2024/03/17 12:42:13;;;;;;;7.80;4.65;;;17.70;18.30;;;;;;5035690;28;20418;-76
2024/03/17 12:44:48;;;;;;;8.43;4.20;;;17.60;17.70;;;;;;5035628;28;20885;-75
2024/03/17 12:47:18;;;;;;;10.23;4.82;;;17.60;18.00;;;;;;5034509;28;20478;-77
2024/03/17 12:49:53;;;;;;;6.80;4.80;;;17.50;18.10;;;;;;5034531;28;20821;-74
2024/03/17 12:52:28;;;;;;;8.80;5.13;;;17.60;17.00;;;;;;5034669;28;20469;-76